Time;durP1;ratioP1;P1;durP2;ratioP2;P2;SDS_P1;SDS_P2;PMS_P1;PMS_P2;Temp;Humidity;BMP_temperature;BMP_pressure;BME280_temperature;BME280_humidity;BME280_pressure;Samples;Min_cycle;Max_cycle;Signal;HPM_P1;HPM_P2
2024/02/11 00:00:32;;;;;;;31.20;18.33;;;;;;;14.74;80.60;98722.88;5032731;28;20094;-49
2024/02/11 00:02:58;;;;;;;30.08;17.77;;;;;;;15.23;79.07;98722.72;5031734;28;20079;-48
2024/02/11 00:05:26;;;;;;;28.95;18.75;;;;;;;15.24;78.99;98724.41;5032051;28;20124;-49
2024/02/11 00:07:51;;;;;;;26.70;17.33;;;;;;;15.11;78.65;98722.34;5031445;28;20037;-48
2024/02/11 00:10:16;;;;;;;28.08;17.58;;;;;;;14.97;79.06;98721.09;5031299;28;20026;-50
2024/02/11 00:12:42;;;;;;;30.50;18.48;;;;;;;14.96;79.17;98714.13;5031252;28;20038;-49
2024/02/11 00:15:08;;;;;;;30.77;18.85;;;;;;;14.91;79.43;98715.22;5031726;28;20056;-53
2024/02/11 00:17:37;;;;;;;28.10;17.95;;;;;;;15.17;78.49;98716.84;5031401;28;20064;-52
2024/02/11 00:20:05;;;;;;;29.83;18.20;;;;;;;15.10;78.70;98707.50;5030775;28;20702;-48
2024/02/11 00:22:30;;;;;;;27.70;18.10;;;;;;;14.93;79.66;98709.00;5030999;28;20041;-52
2024/02/11 00:24:56;;;;;;;29.15;18.05;;;;;;;14.71;80.44;98705.47;5030606;28;20040;-50
2024/02/11 00:27:24;;;;;;;28.52;18.23;;;;;;;14.92;79.76;98711.69;5029943;28;20042;-48
2024/02/11 00:29:51;;;;;;;28.23;17.50;;;;;;;14.83;79.69;98702.41;5030408;28;20050;-48
2024/02/11 00:32:17;;;;;;;29.25;18.67;;;;;;;14.75;79.99;98712.34;5030924;28;20060;-49
2024/02/11 00:34:42;;;;;;;30.17;18.45;;;;;;;14.65;79.56;98708.34;5031037;28;20117;-47
2024/02/11 00:37:10;;;;;;;27.67;18.02;;;;;;;14.48;80.75;98711.59;5031469;28;20163;-49
2024/02/11 00:39:36;;;;;;;30.88;18.88;;;;;;;14.70;80.09;98697.69;5031040;28;20056;-49
2024/02/11 00:42:02;;;;;;;29.70;18.98;;;;;;;14.51;80.96;98702.78;5030917;28;20091;-50
2024/02/11 00:44:30;;;;;;;28.67;18.27;;;;;;;14.91;79.94;98710.84;5031353;28;20034;-49
2024/02/11 00:46:56;;;;;;;30.17;18.63;;;;;;;14.80;80.10;98701.66;5030733;28;20041;-50
2024/02/11 00:49:21;;;;;;;29.27;18.92;;;;;;;14.44;81.36;98698.66;5030730;28;20403;-49
2024/02/11 00:51:48;;;;;;;29.50;19.20;;;;;;;14.98;79.27;98699.19;5027918;28;20120;-51
2024/02/11 00:54:13;;;;;;;30.00;18.65;;;;;;;14.56;80.79;98700.81;5030064;28;20091;-56
2024/02/11 00:56:42;;;;;;;28.92;18.15;;;;;;;14.93;79.45;98708.16;5031175;28;20393;-53
2024/02/11 00:59:09;;;;;;;31.08;18.83;;;;;;;15.10;78.15;98712.75;5029919;28;20039;-50
2024/02/11 01:01:35;;;;;;;30.40;19.05;;;;;;;15.00;78.81;98710.47;5030503;28;20111;-51
2024/02/11 01:04:00;;;;;;;29.67;18.50;;;;;;;15.04;78.09;98713.84;5029391;28;20072;-51
2024/02/11 01:06:26;;;;;;;30.33;18.58;;;;;;;14.56;80.53;98716.56;5030502;28;20522;-51
2024/02/11 01:08:52;;;;;;;31.83;19.33;;;;;;;15.07;78.76;98715.47;5028643;28;20047;-51
2024/02/11 01:11:21;;;;;;;27.95;18.15;;;;;;;14.92;78.32;98714.31;5030485;28;20029;-55
2024/02/11 01:13:46;;;;;;;30.15;19.20;;;;;;;14.72;79.19;98722.06;5030205;28;20029;-52
2024/02/11 01:16:12;;;;;;;31.17;19.58;;;;;;;15.13;78.10;98721.34;5030647;28;20380;-51
2024/02/11 01:18:37;;;;;;;31.40;18.52;;;;;;;15.10;78.18;98721.47;5029855;28;20048;-49
2024/02/11 01:21:04;;;;;;;31.55;19.40;;;;;;;14.81;78.86;98714.72;5029569;28;20087;-53
2024/02/11 01:23:30;;;;;;;32.17;19.67;;;;;;;14.90;78.99;98717.00;5030037;28;20034;-51
2024/02/11 01:25:55;;;;;;;33.72;19.27;;;;;;;14.90;78.91;98714.38;5029669;28;20462;-49
2024/02/11 01:28:20;;;;;;;32.42;19.77;;;;;;;14.84;79.07;98719.00;5029707;28;20121;-53
2024/02/11 01:30:46;;;;;;;31.00;19.20;;;;;;;14.90;79.16;98724.84;5030028;28;20049;-49
2024/02/11 01:33:11;;;;;;;31.73;19.92;;;;;;;14.91;78.63;98723.94;5030344;28;20033;-49
2024/02/11 01:35:39;;;;;;;33.45;20.50;;;;;;;14.66;80.02;98733.66;5030282;28;20436;-49
2024/02/11 01:38:06;;;;;;;32.45;19.17;;;;;;;14.89;78.67;98740.66;5029347;28;20116;-52
2024/02/11 01:40:32;;;;;;;32.05;19.67;;;;;;;15.03;78.54;98735.75;5029608;28;20026;-51
2024/02/11 01:43:00;;;;;;;34.63;20.00;;;;;;;14.99;78.49;98740.28;5029239;28;20033;-48
2024/02/11 01:45:25;;;;;;;34.25;20.77;;;;;;;14.58;80.49;98733.06;5029945;28;20038;-51
2024/02/11 01:47:53;;;;;;;32.92;20.58;;;;;;;14.84;79.05;98732.97;5029011;28;20048;-49
2024/02/11 01:50:20;;;;;;;34.95;21.00;;;;;;;14.57;80.02;98737.50;5026915;28;20113;-50
2024/02/11 01:52:47;;;;;;;34.33;21.17;;;;;;;14.75;79.84;98738.56;5029476;28;20037;-50
2024/02/11 01:55:17;;;;;;;33.97;21.95;;;;;;;14.66;79.74;98736.28;5030437;28;20030;-48
2024/02/11 01:57:44;;;;;;;35.65;21.65;;;;;;;14.84;79.52;98732.97;5029387;28;20042;-49
2024/02/11 02:00:13;;;;;;;34.13;20.65;;;;;;;14.94;78.72;98729.06;5029457;28;20033;-52
2024/02/11 02:02:41;;;;;;;34.05;21.50;;;;;;;14.76;79.38;98728.94;5029739;28;20040;-47
2024/02/11 02:05:07;;;;;;;34.35;21.35;;;;;;;14.94;79.07;98717.75;5021229;28;20034;-49
2024/02/11 02:07:32;;;;;;;35.63;21.55;;;;;;;14.89;79.18;98727.53;5029460;28;20065;-48
2024/02/11 02:10:00;;;;;;;36.58;22.23;;;;;;;14.75;79.81;98727.22;5028150;28;20038;-48
2024/02/11 02:12:26;;;;;;;34.95;21.30;;;;;;;14.76;79.87;98729.75;5029774;28;20709;-51
2024/02/11 02:14:52;;;;;;;36.30;22.73;;;;;;;14.55;80.25;98725.34;5028983;28;20041;-49
2024/02/11 02:17:17;;;;;;;35.25;21.73;;;;;;;14.65;79.94;98721.44;5029840;28;20029;-49
2024/02/11 02:19:43;;;;;;;35.65;22.35;;;;;;;14.82;79.87;98721.66;5028631;28;20601;-51
2024/02/11 02:22:08;;;;;;;35.03;22.23;;;;;;;14.56;80.27;98722.66;5029288;28;20048;-47
2024/02/11 02:24:33;;;;;;;37.60;22.23;;;;;;;14.66;80.10;98725.78;5029309;28;20164;-52
2024/02/11 02:26:59;;;;;;;36.17;22.85;;;;;;;14.71;80.43;98720.38;5028866;28;20064;-51
2024/02/11 02:29:24;;;;;;;35.38;22.58;;;;;;;14.84;79.24;98713.75;5027913;28;20116;-47
2024/02/11 02:31:49;;;;;;;36.38;21.88;;;;;;;14.90;79.29;98710.88;5028951;28;20091;-52
2024/02/11 02:34:15;;;;;;;39.17;22.92;;;;;;;14.86;79.51;98707.53;5029602;28;20034;-48
2024/02/11 02:36:40;;;;;;;37.58;23.65;;;;;;;14.37;81.60;98716.38;5029706;28;20040;-49
2024/02/11 02:39:07;;;;;;;36.88;22.58;;;;;;;14.91;79.40;98700.34;5028695;28;20492;-49
2024/02/11 02:41:33;;;;;;;40.85;22.75;;;;;;;14.94;79.47;98709.88;5030205;28;20029;-48
2024/02/11 02:43:58;;;;;;;39.63;23.38;;;;;;;14.87;79.74;98709.25;5028832;28;20518;-51
2024/02/11 02:46:28;;;;;;;38.38;23.58;;;;;;;14.90;79.61;98708.25;5029365;28;20107;-51
2024/02/11 02:48:56;;;;;;;38.90;23.00;;;;;;;15.03;78.99;98706.88;5028439;28;20037;-50
2024/02/11 02:51:22;;;;;;;36.28;22.80;;;;;;;14.79;79.61;98702.56;5029594;28;20033;-46
2024/02/11 02:53:49;;;;;;;38.45;23.80;;;;;;;14.99;79.34;98694.81;5029676;28;20080;-48
2024/02/11 02:56:16;;;;;;;36.90;22.35;;;;;;;15.03;79.08;98706.88;5030182;28;20124;-49
2024/02/11 02:58:41;;;;;;;38.38;23.70;;;;;;;14.90;79.41;98701.25;5029179;28;20033;-49
2024/02/11 03:01:06;;;;;;;37.40;23.58;;;;;;;15.03;78.81;98704.25;5030007;28;20048;-49
2024/02/11 03:03:32;;;;;;;37.38;23.60;;;;;;;15.03;79.00;98705.09;5030128;28;20037;-49
2024/02/11 03:05:57;;;;;;;34.53;22.70;;;;;;;15.10;78.68;98700.47;5029219;28;20042;-47
2024/02/11 03:08:22;;;;;;;35.28;22.60;;;;;;;15.11;78.57;98696.94;5028716;28;20033;-48
2024/02/11 03:10:48;;;;;;;37.53;22.88;;;;;;;15.08;78.50;98702.31;5028793;28;20082;-47
2024/02/11 03:13:13;;;;;;;37.50;23.05;;;;;;;15.12;78.59;98710.94;5029088;28;20479;-46
2024/02/11 03:15:38;;;;;;;35.75;23.00;;;;;;;15.06;78.86;98705.91;5029145;28;20693;-49
2024/02/11 03:18:04;;;;;;;38.90;23.25;;;;;;;15.13;78.63;98707.34;5028643;28;20033;-48
2024/02/11 03:20:29;;;;;;;40.97;24.63;;;;;;;15.08;79.18;98707.53;5029239;28;20507;-47
2024/02/11 03:22:55;;;;;;;40.80;24.63;;;;;;;15.18;78.48;98710.69;5029198;28;20492;-51
2024/02/11 03:25:20;;;;;;;41.10;24.75;;;;;;;15.05;78.87;98707.69;5029263;28;20030;-49
2024/02/11 03:27:47;;;;;;;40.95;25.02;;;;;;;15.00;79.28;98707.00;5031874;28;20492;-47
2024/02/11 03:30:15;;;;;;;42.15;25.10;;;;;;;15.15;78.83;98703.78;5032301;28;20135;-47
2024/02/11 03:32:41;;;;;;;38.40;24.35;;;;;;;15.17;78.57;98701.94;5032151;28;20116;-47
2024/02/11 03:35:07;;;;;;;43.17;25.27;;;;;;;15.11;78.60;98703.97;5032724;28;20172;-47
2024/02/11 03:37:34;;;;;;;39.67;24.02;;;;;;;15.13;78.66;98702.09;5032236;28;20037;-48
2024/02/11 03:40:08;;;;;;;39.10;23.92;;;;;;;15.16;78.52;98708.09;5031504;28;20120;-51
2024/02/11 03:42:34;;;;;;;37.05;23.05;;;;;;;15.20;78.43;98707.06;5032281;28;20036;-50
2024/02/11 03:44:59;;;;;;;36.13;22.02;;;;;;;15.20;78.40;98703.59;5031643;28;20391;-48
2024/02/11 03:47:24;;;;;;;35.80;22.15;;;;;;;15.19;78.74;98704.50;5031649;28;20033;-48
2024/02/11 03:49:52;;;;;;;42.40;24.15;;;;;;;15.15;78.51;98703.78;5031923;28;20033;-49
2024/02/11 03:52:18;;;;;;;39.10;23.92;;;;;;;15.18;78.99;98708.06;5030622;28;20040;-52
2024/02/11 03:54:43;;;;;;;36.35;22.90;;;;;;;15.19;78.65;98702.72;5031847;28;20104;-49
2024/02/11 03:57:08;;;;;;;37.58;22.90;;;;;;;15.15;78.77;98708.16;5032193;28;20087;-50
2024/02/11 03:59:34;;;;;;;38.38;23.85;;;;;;;15.13;78.75;98716.09;5031271;28;20034;-48
2024/02/11 04:02:03;;;;;;;35.70;21.63;;;;;;;15.17;78.57;98711.59;5029812;28;20037;-49
2024/02/11 04:04:28;;;;;;;36.72;22.27;;;;;;;15.16;78.40;98707.25;5030934;28;20100;-47
2024/02/11 04:06:54;;;;;;;34.75;21.65;;;;;;;15.18;78.50;98708.06;5031320;28;20041;-52
2024/02/11 04:09:28;;;;;;;33.13;20.88;;;;;;;15.13;78.71;98716.09;5030857;28;20112;-49
2024/02/11 04:11:56;;;;;;;36.03;21.48;;;;;;;15.15;78.77;98714.28;5031511;28;20045;-47
2024/02/11 04:14:21;;;;;;;31.80;20.67;;;;;;;15.17;78.45;98714.22;5031982;28;20117;-48
2024/02/11 04:16:47;;;;;;;32.92;21.15;;;;;;;15.22;78.71;98712.25;5031165;28;20125;-48
2024/02/11 04:19:12;;;;;;;37.22;22.00;;;;;;;15.23;78.83;98711.34;5031160;28;20025;-50
2024/02/11 04:21:40;;;;;;;36.92;22.42;;;;;;;15.18;78.80;98708.91;5029914;28;20120;-51
2024/02/11 04:24:08;;;;;;;35.33;21.58;;;;;;;15.13;78.75;98715.22;5031211;28;20099;-51
2024/02/11 04:26:33;;;;;;;35.60;21.52;;;;;;;15.09;78.96;98704.00;5031521;28;20102;-47
2024/02/11 04:28:59;;;;;;;35.70;20.67;;;;;;;15.17;78.87;98707.19;5030576;28;20037;-49
2024/02/11 04:31:25;;;;;;;37.35;21.02;;;;;;;15.17;78.90;98704.56;5031731;28;20048;-50
2024/02/11 04:33:51;;;;;;;35.75;20.73;;;;;;;15.17;78.79;98709.81;5031003;28;20030;-51
2024/02/11 04:36:18;;;;;;;35.63;21.38;;;;;;;15.14;79.00;98703.81;5030991;28;20458;-50
2024/02/11 04:38:47;;;;;;;37.08;21.13;;;;;;;15.13;78.89;98705.59;5029128;28;20045;-51
2024/02/11 04:41:13;;;;;;;33.70;20.00;;;;;;;15.15;79.12;98709.03;5031253;28;20030;-50
2024/02/11 04:43:39;;;;;;;32.75;19.10;;;;;;;15.18;78.92;98708.91;5030971;28;20033;-48
2024/02/11 04:46:04;;;;;;;35.67;20.42;;;;;;;15.06;79.30;98708.53;5030538;28;20057;-55
2024/02/11 04:48:31;;;;;;;34.05;19.38;;;;;;;15.12;79.37;98709.16;5029130;28;20381;-50
2024/02/11 04:50:58;;;;;;;34.50;19.33;;;;;;;15.01;79.53;98706.94;5030625;28;20044;-50
2024/02/11 04:53:24;;;;;;;35.78;19.38;;;;;;;15.00;79.89;98713.09;5030939;28;20404;-48
2024/02/11 04:55:50;;;;;;;29.23;15.88;;;;;;;14.13;81.24;98727.69;5030371;28;20034;-54
2024/02/11 04:58:19;;;;;;;30.52;14.18;;;;;;;13.85;81.83;98733.00;5030608;28;20064;-50
2024/02/11 05:00:49;;;;;;;24.90;13.30;;;;;;;13.85;82.03;98738.25;5030342;28;20034;-50
2024/02/11 05:03:17;;;;;;;25.55;12.60;;;;;;;13.21;82.92;98742.13;5030730;28;20053;-48
2024/02/11 05:05:44;;;;;;;20.00;11.40;;;;;;;13.24;82.34;98750.72;5030217;28;20051;-52
2024/02/11 05:08:10;;;;;;;19.55;11.02;;;;;;;13.04;82.71;98742.63;5029210;28;20025;-47
2024/02/11 05:10:39;;;;;;;22.25;12.10;;;;;;;13.17;82.16;98744.00;5030411;28;20032;-47
2024/02/11 05:13:08;;;;;;;23.23;11.82;;;;;;;13.05;82.48;98746.94;5029248;28;20029;-47
2024/02/11 05:15:38;;;;;;;21.25;11.25;;;;;;;12.98;82.27;98755.88;5030767;28;20029;-48
2024/02/11 05:18:04;;;;;;;19.05;10.32;;;;;;;13.22;82.25;98757.78;5029774;28;20472;-50
2024/02/11 05:20:31;;;;;;;21.25;10.32;;;;;;;13.27;81.48;98765.47;5028015;28;20518;-49
2024/02/11 05:22:58;;;;;;;20.50;10.32;;;;;;;13.29;81.61;98768.91;5029618;28;20523;-51
2024/02/11 05:25:25;;;;;;;20.80;9.52;;;;;;;13.11;81.66;98767.69;5030210;28;20492;-49
2024/02/11 05:27:55;;;;;;;20.73;10.40;;;;;;;13.34;81.45;98773.09;5029755;28;20059;-50
2024/02/11 05:30:23;;;;;;;18.88;9.48;;;;;;;13.06;81.62;98772.19;5030256;28;20036;-50
2024/02/11 05:32:53;;;;;;;17.05;8.48;;;;;;;12.92;82.59;98779.59;5029281;28;20033;-49
2024/02/11 05:35:21;;;;;;;16.30;8.57;;;;;;;13.00;82.02;98783.69;5029227;28;20033;-51
2024/02/11 05:37:46;;;;;;;19.55;7.47;;;;;;;12.59;82.50;98787.50;5029481;28;20033;-47
2024/02/11 05:40:12;;;;;;;12.38;6.30;;;;;;;12.59;83.27;98784.88;5029613;28;20041;-49
2024/02/11 05:42:42;;;;;;;12.48;6.47;;;;;;;12.48;83.20;98786.94;5030361;28;20488;-47
2024/02/11 05:45:08;;;;;;;15.73;7.10;;;;;;;12.73;82.47;98797.56;5029445;28;20510;-48
2024/02/11 05:47:34;;;;;;;19.42;7.93;;;;;;;12.69;81.71;98790.69;5029766;28;20040;-54
2024/02/11 05:49:59;;;;;;;15.43;8.80;;;;;;;12.67;82.44;98802.13;5028957;28;20579;-51
2024/02/11 05:52:25;;;;;;;19.52;9.77;;;;;;;12.95;81.16;98800.41;5030421;28;20103;-48
2024/02/11 05:54:50;;;;;;;19.05;9.38;;;;;;;12.91;81.30;98810.13;5029989;28;20033;-48
2024/02/11 05:57:15;;;;;;;18.85;8.93;;;;;;;13.11;80.50;98808.69;5030488;28;20522;-51
2024/02/11 05:59:41;;;;;;;16.33;8.40;;;;;;;13.16;79.28;98805.06;5029090;28;20052;-54
2024/02/11 06:02:06;;;;;;;14.80;7.65;;;;;;;13.29;79.21;98795.09;5028779;28;20052;-47
2024/02/11 06:04:31;;;;;;;14.77;7.90;;;;;;;13.29;79.10;98801.19;5030386;28;20061;-51
2024/02/11 06:06:57;;;;;;;15.30;6.90;;;;;;;12.82;80.45;98806.91;5029544;28;20033;-48
2024/02/11 06:09:23;;;;;;;14.57;6.85;;;;;;;12.89;80.52;98808.44;5029466;28;20103;-48
2024/02/11 06:11:49;;;;;;;16.52;7.00;;;;;;;13.00;79.95;98811.59;5030647;28;20579;-49
2024/02/11 06:14:14;;;;;;;15.10;6.25;;;;;;;12.81;80.35;98808.66;5030540;28;20038;-51
2024/02/11 06:16:39;;;;;;;14.45;6.25;;;;;;;12.83;80.20;98814.72;5030039;28;20526;-48
2024/02/11 06:19:06;;;;;;;16.05;5.70;;;;;;;12.69;80.54;98819.47;5028970;28;20034;-49
2024/02/11 06:21:31;;;;;;;14.27;5.97;;;;;;;12.62;80.71;98819.69;5029461;28;20124;-48
2024/02/11 06:23:57;;;;;;;15.20;5.88;;;;;;;12.84;80.01;98823.41;5029614;28;20060;-50
2024/02/11 06:26:22;;;;;;;14.27;6.13;;;;;;;12.66;80.68;98829.16;5028030;28;20050;-48
2024/02/11 06:28:48;;;;;;;14.70;5.70;;;;;;;12.94;79.85;98836.16;5028778;28;20145;-50
2024/02/11 06:31:13;;;;;;;14.23;5.65;;;;;;;12.88;79.85;98828.50;5030066;28;20511;-51
2024/02/11 06:33:41;;;;;;;15.93;5.50;;;;;;;12.46;80.90;98835.78;5029934;28;20421;-48
2024/02/11 06:36:06;;;;;;;16.20;5.40;;;;;;;12.55;80.95;98837.28;5029945;28;20526;-47
2024/02/11 06:38:32;;;;;;;12.30;4.68;;;;;;;12.82;80.08;98840.88;5029263;28;20048;-50
2024/02/11 06:40:58;;;;;;;16.00;4.65;;;;;;;12.80;80.00;98851.41;5029411;28;20124;-50
2024/02/11 06:43:24;;;;;;;9.30;4.47;;;;;;;12.79;79.93;98854.06;5030033;28;20036;-54
2024/02/11 06:45:50;;;;;;;12.48;4.50;;;;;;;12.69;79.39;98849.97;5029400;28;20435;-52
2024/02/11 06:48:16;;;;;;;13.90;3.90;;;;;;;12.79;79.39;98857.53;5029634;28;20551;-50
2024/02/11 06:50:41;;;;;;;14.05;4.03;;;;;;;12.37;80.24;98853.47;5029151;28;20160;-49
2024/02/11 06:53:08;;;;;;;9.50;3.60;;;;;;;12.50;79.81;98860.91;5030108;28;20033;-47
2024/02/11 06:55:35;;;;;;;10.00;3.38;;;;;;;12.35;80.54;98869.19;5046637;28;20119;-50
2024/02/11 06:58:01;;;;;;;12.20;3.47;;;;;;;12.29;80.62;98871.94;5030350;28;20048;-49
2024/02/11 07:00:28;;;;;;;10.07;3.92;;;;;;;12.51;79.77;98874.84;5031152;28;20035;-49
2024/02/11 07:02:54;;;;;;;13.20;3.80;;;;;;;12.73;79.49;98883.00;5031882;28;20029;-47
2024/02/11 07:05:20;;;;;;;11.45;3.90;;;;;;;12.80;79.14;98892.41;5033097;28;20039;-51
2024/02/11 07:07:46;;;;;;;9.55;4.00;;;;;;;12.51;79.89;98888.78;5032502;28;20037;-49
2024/02/11 07:10:12;;;;;;;14.60;4.47;;;;;;;13.00;78.47;98901.38;5032880;28;20480;-50
2024/02/11 07:12:38;;;;;;;12.80;4.70;;;;;;;12.70;79.29;98904.84;5032952;28;20033;-52
2024/02/11 07:15:04;;;;;;;12.27;4.82;;;;;;;12.78;78.49;98912.50;5033598;28;20037;-52
2024/02/11 07:17:30;;;;;;;14.82;5.10;;;;;;;12.85;78.66;98920.13;5048008;28;20116;-50
2024/02/11 07:19:55;;;;;;;14.40;5.57;;;;;;;12.79;78.68;98920.31;5031919;28;20121;-50
2024/02/11 07:22:21;;;;;;;17.02;5.28;;;;;;;12.64;79.52;98923.31;5032365;28;20033;-53
2024/02/11 07:24:47;;;;;;;12.40;5.65;;;;;;;12.78;79.54;98926.44;5031943;28;20068;-51
2024/02/11 07:27:14;;;;;;;19.35;6.00;;;;;;;12.70;79.22;98930.13;5030535;28;20396;-50
2024/02/11 07:29:42;;;;;;;19.60;7.10;;;;;;;12.54;79.92;98933.16;5031956;28;20585;-49
2024/02/11 07:32:08;;;;;;;19.50;7.30;;;;;;;12.85;78.81;98930.59;5032292;28;20442;-54
2024/02/11 07:34:34;;;;;;;21.17;8.27;;;;;;;12.36;80.32;98938.84;5032675;28;20075;-49
2024/02/11 07:37:02;;;;;;;25.42;9.52;;;;;;;12.50;79.83;98938.50;5032402;28;20680;-49
2024/02/11 07:39:28;;;;;;;21.90;9.13;;;;;;;12.83;78.84;98941.97;5033024;28;20025;-47
2024/02/11 07:41:53;;;;;;;24.35;10.13;;;;;;;12.70;79.21;98945.81;5033127;28;20073;-51
2024/02/11 07:44:19;;;;;;;22.60;9.63;;;;;;;12.92;78.65;98949.59;5032724;28;20087;-49
2024/02/11 07:46:44;;;;;;;23.55;9.45;;;;;;;12.99;78.22;98943.31;5032365;28;20464;-49
2024/02/11 07:49:13;;;;;;;27.42;10.30;;;;;;;12.58;79.06;98946.97;5032900;28;20103;-47
2024/02/11 07:51:45;;;;;;;24.55;10.32;;;;;;;12.74;78.49;98950.94;5032780;28;20116;-55
2024/02/11 07:54:11;;;;;;;28.90;10.82;;;;;;;12.93;78.23;98956.53;5032301;28;20116;-49
2024/02/11 07:56:37;;;;;;;25.20;10.57;;;;;;;13.07;77.82;98956.16;5032887;28;20033;-48
2024/02/11 07:59:02;;;;;;;28.77;11.25;;;;;;;13.05;77.40;98958.84;5031182;28;20034;-50
2024/02/11 08:01:28;;;;;;;26.40;10.60;;;;;;;13.05;77.13;98956.22;5032048;28;20025;-49
2024/02/11 08:03:53;;;;;;;28.65;11.00;;;;;;;13.12;77.28;98951.66;5031473;28;20117;-51
2024/02/11 08:06:19;;;;;;;28.80;11.38;;;;;;;12.90;77.55;98960.09;5032123;28;20061;-49
2024/02/11 08:08:44;;;;;;;32.60;11.95;;;;;;;12.87;78.04;98957.53;5031192;28;20038;-48
2024/02/11 08:11:10;;;;;;;24.73;11.63;;;;;;;13.01;77.51;98965.91;5031941;28;20037;-48
2024/02/11 08:13:35;;;;;;;25.35;11.45;;;;;;;13.08;77.54;98961.34;5031647;28;20029;-50
2024/02/11 08:16:02;;;;;;;29.58;12.20;;;;;;;13.01;77.18;98965.03;5031932;28;20037;-53
2024/02/11 08:18:28;;;;;;;29.20;12.32;;;;;;;13.16;77.47;98974.28;5033051;28;20095;-52
2024/02/11 08:20:55;;;;;;;32.30;11.82;;;;;;;12.94;77.45;98973.94;5032110;28;20034;-48
2024/02/11 08:23:22;;;;;;;29.95;11.55;;;;;;;13.19;76.62;98968.94;5031566;28;20034;-46
2024/02/11 08:25:49;;;;;;;31.70;11.27;;;;;;;13.34;76.94;98979.00;5031094;28;20141;-52
2024/02/11 08:28:15;;;;;;;25.08;11.20;;;;;;;13.36;76.32;98978.03;5031173;28;20037;-51
2024/02/11 08:30:40;;;;;;;29.77;11.30;;;;;;;13.50;76.35;98982.03;5031145;28;20034;-50
2024/02/11 08:33:05;;;;;;;29.50;10.65;;;;;;;13.17;76.88;98983.84;5029496;28;20029;-48
2024/02/11 08:35:32;;;;;;;26.38;11.00;;;;;;;13.30;76.44;98988.66;5031406;28;20040;-49
2024/02/11 08:37:57;;;;;;;28.23;10.73;;;;;;;13.56;76.23;98981.84;5029177;28;20087;-49
2024/02/11 08:40:23;;;;;;;23.83;10.23;;;;;;;13.72;76.02;98991.00;5031547;28;20116;-48
2024/02/11 08:42:49;;;;;;;25.30;9.82;;;;;;;13.44;76.06;98990.91;5030541;28;20499;-52
2024/02/11 08:45:15;;;;;;;22.17;9.65;;;;;;;13.56;75.70;99001.03;5031268;28;20029;-54
2024/02/11 08:47:41;;;;;;;25.50;9.35;;;;;;;13.34;75.07;99006.03;5030775;28;20037;-53
2024/02/11 08:50:07;;;;;;;22.45;8.70;;;;;;;13.46;76.05;99009.19;5031024;28;20098;-48
2024/02/11 08:52:33;;;;;;;19.45;8.25;;;;;;;13.65;75.34;99018.25;5031213;28;20168;-50
2024/02/11 08:54:58;;;;;;;20.10;8.55;;;;;;;13.88;74.77;99023.69;5030929;28;20618;-52
2024/02/11 08:57:26;;;;;;;21.17;8.50;;;;;;;14.04;74.49;99030.16;5031083;28;20025;-45
2024/02/11 08:59:52;;;;;;;21.85;8.15;;;;;;;14.10;74.32;99021.28;5030468;28;20127;-51
2024/02/11 09:02:18;;;;;;;18.98;8.35;;;;;;;14.01;73.80;99027.66;5031256;28;20075;-50
2024/02/11 09:04:43;;;;;;;20.63;8.15;;;;;;;13.97;73.72;99033.88;5030237;28;20069;-52
2024/02/11 09:07:10;;;;;;;20.35;7.60;;;;;;;14.00;73.51;99036.41;5030638;28;20128;-52
2024/02/11 09:09:36;;;;;;;17.02;7.70;;;;;;;14.24;73.37;99034.81;5030241;28;20136;-50
2024/02/11 09:12:02;;;;;;;22.30;8.05;;;;;;;14.21;72.94;99035.75;5030215;28;20121;-49
2024/02/11 09:14:29;;;;;;;22.52;8.10;;;;;;;13.94;72.40;99036.59;5030642;28;20834;-52
2024/02/11 09:17:02;;;;;;;25.02;9.15;;;;;;;13.57;74.31;99041.16;5030160;28;20128;-47
2024/02/11 09:19:27;;;;;;;22.80;9.38;;;;;;;13.63;74.32;99043.63;5030370;28;20411;-48
2024/02/11 09:21:54;;;;;;;23.17;9.65;;;;;;;13.52;74.25;99037.81;5030292;28;20044;-49
2024/02/11 09:24:20;;;;;;;21.55;10.18;;;;;;;13.55;74.36;99042.97;5030146;28;20056;-48
2024/02/11 09:26:45;;;;;;;25.83;12.18;;;;;;;13.49;74.87;99044.00;5030182;28;20504;-48
2024/02/11 09:29:10;;;;;;;23.38;11.82;;;;;;;13.95;73.95;99059.28;5030032;28;20037;-48
2024/02/11 09:31:36;;;;;;;25.27;12.75;;;;;;;13.91;73.40;99051.53;5030432;28;20395;-51
2024/02/11 09:34:02;;;;;;;34.33;13.93;;;;;;;13.58;73.72;99059.47;5029943;28;20116;-50
2024/02/11 09:36:28;;;;;;;31.80;13.40;;;;;;;13.81;73.97;99059.66;5030327;28;20156;-48
2024/02/11 09:38:53;;;;;;;28.15;14.32;;;;;;;13.62;74.08;99060.22;5029102;28;20116;-48
2024/02/11 09:41:18;;;;;;;27.83;14.43;;;;;;;14.00;73.84;99065.25;5030317;28;20031;-50
2024/02/11 09:43:45;;;;;;;33.25;14.70;;;;;;;14.10;73.23;99068.44;5029713;28;20044;-50
2024/02/11 09:46:17;;;;;;;29.13;14.23;;;;;;;14.35;72.84;99068.56;5029841;28;20500;-48
2024/02/11 09:48:50;;;;;;;31.67;14.20;;;;;;;14.59;72.20;99071.31;5029064;28;20034;-50
2024/02/11 09:51:18;;;;;;;29.70;13.98;;;;;;;14.36;72.52;99078.16;5030310;28;20722;-49
2024/02/11 09:53:45;;;;;;;29.23;13.80;;;;;;;14.35;73.00;99079.91;5029605;28;20045;-48
2024/02/11 09:56:11;;;;;;;26.90;13.65;;;;;;;14.13;73.35;99087.56;5028222;28;20033;-49
2024/02/11 09:58:37;;;;;;;27.83;14.00;;;;;;;14.62;72.78;99086.09;5028714;28;20047;-49
2024/02/11 10:01:02;;;;;;;33.42;14.70;;;;;;;14.74;71.95;99085.72;5029929;28;20057;-49
2024/02/11 10:03:29;;;;;;;31.30;14.85;;;;;;;14.43;71.02;99085.81;5030108;28;20038;-51
2024/02/11 10:05:58;;;;;;;29.40;14.30;;;;;;;14.71;71.73;99092.81;5029601;28;20087;-50
2024/02/11 10:08:24;;;;;;;28.15;14.30;;;;;;;14.54;70.77;99102.06;5029487;28;20083;-50
2024/02/11 10:10:50;;;;;;;27.17;14.23;;;;;;;14.49;71.11;99096.13;5028290;28;20431;-47
2024/02/11 10:13:19;;;;;;;31.15;13.93;;;;;;;14.60;70.60;99104.50;5029858;28;20031;-49
2024/02/11 10:15:49;;;;;;;30.92;13.63;;;;;;;14.75;69.66;99097.94;5028978;28;20033;-51
2024/02/11 10:18:17;;;;;;;30.80;13.05;;;;;;;14.74;69.75;99104.09;5029559;28;20029;-48
2024/02/11 10:20:47;;;;;;;29.77;13.63;;;;;;;14.36;70.84;99102.59;5028739;28;20037;-49
2024/02/11 10:23:14;;;;;;;28.52;14.25;;;;;;;14.00;72.05;99103.69;5029518;28;20049;-50
2024/02/11 10:25:39;;;;;;;35.53;14.43;;;;;;;14.19;71.13;99103.13;5029118;28;20029;-50
2024/02/11 10:28:06;;;;;;;31.85;14.50;;;;;;;14.80;70.02;99097.78;5029903;28;20380;-49
2024/02/11 10:30:34;;;;;;;29.52;14.15;;;;;;;13.98;71.75;99106.34;5029965;28;20040;-48
2024/02/11 10:33:01;;;;;;;28.15;14.20;;;;;;;14.45;71.17;99104.13;5029167;28;20112;-52
2024/02/11 10:35:28;;;;;;;30.92;13.93;;;;;;;14.57;70.23;99107.25;5030154;28;20678;-51
2024/02/11 10:37:54;;;;;;;28.15;14.25;;;;;;;14.44;70.18;99120.75;5030839;28;20030;-49
2024/02/11 10:40:19;;;;;;;29.63;14.65;;;;;;;14.76;69.87;99115.38;5033282;28;20095;-51
2024/02/11 10:42:45;;;;;;;31.83;16.13;;;;;;;14.91;69.33;99120.13;5032936;28;20033;-49
2024/02/11 10:45:11;;;;;;;32.00;15.88;;;;;;;15.01;68.43;99125.94;5032638;28;20034;-49
2024/02/11 10:47:36;;;;;;;33.10;15.52;;;;;;;15.29;67.72;99124.13;5033417;28;20121;-47
2024/02/11 10:50:05;;;;;;;33.58;15.20;;;;;;;14.93;68.09;99122.72;5032953;28;20029;-50
2024/02/11 10:52:41;;;;;;;27.70;15.38;;;;;;;15.31;67.71;99118.81;5033737;28;20044;-50
2024/02/11 10:55:10;;;;;;;29.15;15.05;;;;;;;15.01;67.50;99133.81;5033453;28;20033;-50
2024/02/11 10:57:44;;;;;;;32.60;14.60;;;;;;;14.53;68.25;99130.97;5032921;28;20037;-51
2024/02/11 11:00:13;;;;;;;31.88;15.40;;;;;;;14.79;68.55;99128.41;5012983;28;20551;-52
2024/02/11 11:02:42;;;;;;;28.75;15.52;;;;;;;14.93;67.61;99134.06;5013162;28;20033;-51
2024/02/11 11:05:11;;;;;;;30.70;15.20;;;;;;;14.84;68.11;99139.59;5013458;28;20489;-48
2024/02/11 11:07:40;;;;;;;30.17;15.10;;;;;;;14.84;68.20;99144.00;5013577;28;20065;-51
2024/02/11 11:10:12;;;;;;;31.23;15.07;;;;;;;14.41;68.56;99134.81;5032614;28;20038;-51
2024/02/11 11:12:54;;;;;;;32.13;15.40;;;;;;;14.53;68.80;99136.19;5033012;28;20487;-47
2024/02/11 11:15:31;;;;;;;30.88;15.20;;;;;;;15.10;69.14;99136.16;5013132;28;20470;-50